Terminal Aerodrome Forecast
Issued by NWS

Current Version | Previous Version | Graphics & Text | Print | Product List | Glossary On
Versions: 1 2 3 4 5 6 7 8 9 10 11 12 13 14 15 16 17 18 19
607
FTUS41 KILN 171740
TAFLUK
TAF
KLUK 171740Z 1718/1818 22012G22KT P6SM -SHRA VCTS SCT025 BKN035CB
      TEMPO 1718/1722 4SM -TSRA BKN025CB
     FM172200 22010KT P6SM -SHRA BKN035
     FM180300 23006KT P6SM VCSH BKN035
     FM180700 24004KT 4SM BR BKN015
     FM181300 26008KT P6SM SCT025
     FM181700 27010G18KT P6SM SCT040=

USA.gov is the U.S. government's official web portal to all federal, state and local government web resources and services.